sensor_id;sensor_type;location;lat;lon;timestamp;pressure;altitude;pressure_sealevel;temperature;humidity
57412;BME280;43247;52.828;-8.980;2022-09-17T00:01:37;102681.97;;;23.33;53.85
57412;BME280;43247;52.828;-8.980;2022-09-17T00:04:08;102683.53;;;23.58;53.20
57412;BME280;43247;52.828;-8.980;2022-09-17T00:06:37;102678.47;;;23.39;53.67
57412;BME280;43247;52.828;-8.980;2022-09-17T00:09:08;102682.07;;;23.11;54.56
57412;BME280;43247;52.828;-8.980;2022-09-17T00:11:40;102684.97;;;23.28;53.94
57412;BME280;43247;52.828;-8.980;2022-09-17T00:14:13;102687.40;;;23.20;54.13
57412;BME280;43247;52.828;-8.980;2022-09-17T00:16:41;102686.14;;;23.15;54.28
57412;BME280;43247;52.828;-8.980;2022-09-17T00:19:13;102685.30;;;23.34;53.79
57412;BME280;43247;52.828;-8.980;2022-09-17T00:21:40;102684.84;;;23.07;54.28
57412;BME280;43247;52.828;-8.980;2022-09-17T00:24:12;102687.87;;;23.52;53.37
57412;BME280;43247;52.828;-8.980;2022-09-17T00:26:41;102686.42;;;23.45;53.49
57412;BME280;43247;52.828;-8.980;2022-09-17T00:29:11;102684.75;;;23.17;54.02
57412;BME280;43247;52.828;-8.980;2022-09-17T00:31:41;102681.96;;;23.59;53.15
57412;BME280;43247;52.828;-8.980;2022-09-17T00:34:12;102683.47;;;23.41;53.58
57412;BME280;43247;52.828;-8.980;2022-09-17T00:36:42;102683.71;;;23.42;53.52
57412;BME280;43247;52.828;-8.980;2022-09-17T00:39:13;102685.98;;;23.51;53.44
57412;BME280;43247;52.828;-8.980;2022-09-17T00:41:43;102686.03;;;23.60;53.04
57412;BME280;43247;52.828;-8.980;2022-09-17T00:46:44;102682.00;;;23.60;53.11
57412;BME280;43247;52.828;-8.980;2022-09-17T00:49:17;102682.06;;;23.25;53.95
57412;BME280;43247;52.828;-8.980;2022-09-17T00:51:48;102683.32;;;23.10;54.37
57412;BME280;43247;52.828;-8.980;2022-09-17T00:54:15;102680.79;;;23.13;54.06
57412;BME280;43247;52.828;-8.980;2022-09-17T00:56:45;102676.04;;;23.37;53.43
57412;BME280;43247;52.828;-8.980;2022-09-17T00:59:15;102673.30;;;23.35;53.58
57412;BME280;43247;52.828;-8.980;2022-09-17T01:01:46;102674.51;;;23.00;54.25
57412;BME280;43247;52.828;-8.980;2022-09-17T01:04:16;102676.08;;;23.55;53.03
57412;BME280;43247;52.828;-8.980;2022-09-17T01:06:54;102673.43;;;23.17;53.93
57412;BME280;43247;52.828;-8.980;2022-09-17T01:09:27;102672.69;;;23.38;53.91
57412;BME280;43247;52.828;-8.980;2022-09-17T01:12:01;102673.01;;;23.53;53.00
57412;BME280;43247;52.828;-8.980;2022-09-17T01:14:30;102671.92;;;22.85;54.80
57412;BME280;43247;52.828;-8.980;2022-09-17T01:16:56;102675.36;;;23.41;53.35
57412;BME280;43247;52.828;-8.980;2022-09-17T01:19:35;102674.18;;;23.32;53.47
57412;BME280;43247;52.828;-8.980;2022-09-17T01:21:56;102674.84;;;22.94;54.59
57412;BME280;43247;52.828;-8.980;2022-09-17T01:24:38;102669.15;;;23.18;53.88
57412;BME280;43247;52.828;-8.980;2022-09-17T01:27:06;102668.34;;;23.64;52.79
57412;BME280;43247;52.828;-8.980;2022-09-17T01:29:31;102673.13;;;23.51;53.06
57412;BME280;43247;52.828;-8.980;2022-09-17T01:31:52;102674.03;;;23.05;54.25
57412;BME280;43247;52.828;-8.980;2022-09-17T01:34:26;102671.29;;;23.40;53.47
57412;BME280;43247;52.828;-8.980;2022-09-17T01:36:59;102667.85;;;23.43;53.30
57412;BME280;43247;52.828;-8.980;2022-09-17T01:39:30;102665.43;;;23.03;54.01
57412;BME280;43247;52.828;-8.980;2022-09-17T01:41:55;102664.95;;;23.66;52.65
57412;BME280;43247;52.828;-8.980;2022-09-17T01:44:25;102663.37;;;23.09;53.86
57412;BME280;43247;52.828;-8.980;2022-09-17T01:46:59;102663.78;;;23.07;54.07
57412;BME280;43247;52.828;-8.980;2022-09-17T01:49:25;102663.68;;;23.31;53.40
57412;BME280;43247;52.828;-8.980;2022-09-17T01:51:54;102661.82;;;22.98;54.35
57412;BME280;43247;52.828;-8.980;2022-09-17T01:54:27;102658.23;;;23.41;53.22
57412;BME280;43247;52.828;-8.980;2022-09-17T01:56:58;102659.55;;;23.37;53.33
57412;BME280;43247;52.828;-8.980;2022-09-17T01:59:28;102659.08;;;23.52;52.99
57412;BME280;43247;52.828;-8.980;2022-09-17T02:01:59;102656.96;;;23.12;53.73
57412;BME280;43247;52.828;-8.980;2022-09-17T02:04:29;102658.09;;;23.21;53.55
57412;BME280;43247;52.828;-8.980;2022-09-17T02:06:59;102656.09;;;23.43;53.00
57412;BME280;43247;52.828;-8.980;2022-09-17T02:09:30;102653.87;;;22.97;54.11
57412;BME280;43247;52.828;-8.980;2022-09-17T02:12:00;102652.65;;;23.17;53.60
57412;BME280;43247;52.828;-8.980;2022-09-17T02:14:30;102652.05;;;23.12;53.67
57412;BME280;43247;52.828;-8.980;2022-09-17T02:17:03;102652.45;;;23.19;53.59
57412;BME280;43247;52.828;-8.980;2022-09-17T02:19:30;102656.40;;;23.03;53.77
57412;BME280;43247;52.828;-8.980;2022-09-17T02:22:02;102655.55;;;23.37;53.21
57412;BME280;43247;52.828;-8.980;2022-09-17T02:24:34;102649.50;;;23.01;53.81
57412;BME280;43247;52.828;-8.980;2022-09-17T02:27:03;102649.25;;;23.21;53.40
57412;BME280;43247;52.828;-8.980;2022-09-17T02:29:32;102649.27;;;23.48;52.85
57412;BME280;43247;52.828;-8.980;2022-09-17T02:32:00;102648.42;;;23.14;53.58
57412;BME280;43247;52.828;-8.980;2022-09-17T02:34:30;102649.11;;;23.31;53.12
57412;BME280;43247;52.828;-8.980;2022-09-17T02:37:01;102648.02;;;23.08;53.59
57412;BME280;43247;52.828;-8.980;2022-09-17T02:39:31;102648.21;;;23.01;53.72
57412;BME280;43247;52.828;-8.980;2022-09-17T02:42:07;102647.32;;;22.89;54.35
57412;BME280;43247;52.828;-8.980;2022-09-17T02:44:39;102648.13;;;23.37;53.07
57412;BME280;43247;52.828;-8.980;2022-09-17T02:47:15;102648.64;;;22.85;54.04
57412;BME280;43247;52.828;-8.980;2022-09-17T02:49:43;102647.68;;;22.74;54.23
57412;BME280;43247;52.828;-8.980;2022-09-17T02:52:08;102647.77;;;23.36;53.10
57412;BME280;43247;52.828;-8.980;2022-09-17T02:54:38;102647.23;;;23.53;52.44
57412;BME280;43247;52.828;-8.980;2022-09-17T02:57:09;102645.36;;;23.57;52.46
57412;BME280;43247;52.828;-8.980;2022-09-17T02:59:38;102641.78;;;23.00;53.61
57412;BME280;43247;52.828;-8.980;2022-09-17T03:02:08;102644.30;;;23.63;52.31
57412;BME280;43247;52.828;-8.980;2022-09-17T03:04:36;102637.65;;;23.09;53.48
57412;BME280;43247;52.828;-8.980;2022-09-17T03:07:07;102639.03;;;22.75;54.15
57412;BME280;43247;52.828;-8.980;2022-09-17T03:09:36;102637.88;;;22.94;53.79
57412;BME280;43247;52.828;-8.980;2022-09-17T03:12:06;102639.19;;;23.00;53.60
57412;BME280;43247;52.828;-8.980;2022-09-17T03:14:37;102644.45;;;23.06;53.48
57412;BME280;43247;52.828;-8.980;2022-09-17T03:17:07;102648.37;;;22.95;53.66
57412;BME280;43247;52.828;-8.980;2022-09-17T03:19:37;102652.22;;;23.38;52.95
57412;BME280;43247;52.828;-8.980;2022-09-17T03:22:07;102646.61;;;22.85;53.88
57412;BME280;43247;52.828;-8.980;2022-09-17T03:24:38;102647.19;;;23.07;53.28
57412;BME280;43247;52.828;-8.980;2022-09-17T03:27:08;102652.51;;;23.09;53.34
57412;BME280;43247;52.828;-8.980;2022-09-17T03:29:38;102653.41;;;23.22;52.94
57412;BME280;43247;52.828;-8.980;2022-09-17T03:32:09;102651.98;;;23.28;52.90
57412;BME280;43247;52.828;-8.980;2022-09-17T03:34:39;102648.68;;;23.18;53.04
57412;BME280;43247;52.828;-8.980;2022-09-17T03:37:09;102650.62;;;23.10;53.18
57412;BME280;43247;52.828;-8.980;2022-09-17T03:39:40;102654.82;;;22.79;54.11
57412;BME280;43247;52.828;-8.980;2022-09-17T03:42:10;102660.91;;;22.87;53.76
57412;BME280;43247;52.828;-8.980;2022-09-17T03:44:40;102659.68;;;22.75;53.85
57412;BME280;43247;52.828;-8.980;2022-09-17T03:47:11;102662.07;;;22.68;54.19
57412;BME280;43247;52.828;-8.980;2022-09-17T03:49:41;102662.40;;;23.04;53.28
57412;BME280;43247;52.828;-8.980;2022-09-17T03:52:11;102662.64;;;23.16;53.20
57412;BME280;43247;52.828;-8.980;2022-09-17T03:54:42;102658.47;;;23.16;52.98
57412;BME280;43247;52.828;-8.980;2022-09-17T03:57:12;102650.67;;;23.06;53.22
57412;BME280;43247;52.828;-8.980;2022-09-17T03:59:43;102648.50;;;22.75;53.95
57412;BME280;43247;52.828;-8.980;2022-09-17T04:02:13;102647.54;;;23.11;53.39
57412;BME280;43247;52.828;-8.980;2022-09-17T04:04:43;102645.77;;;23.04;53.14
57412;BME280;43247;52.828;-8.980;2022-09-17T04:07:14;102643.86;;;23.09;53.07
57412;BME280;43247;52.828;-8.980;2022-09-17T04:09:44;102640.75;;;22.82;53.74
57412;BME280;43247;52.828;-8.980;2022-09-17T04:12:15;102643.18;;;22.78;53.81
57412;BME280;43247;52.828;-8.980;2022-09-17T04:14:45;102643.41;;;23.02;53.22
57412;BME280;43247;52.828;-8.980;2022-09-17T04:17:15;102643.00;;;22.92;53.37
57412;BME280;43247;52.828;-8.980;2022-09-17T04:19:46;102636.90;;;22.79;53.67
57412;BME280;43247;52.828;-8.980;2022-09-17T04:22:16;102629.36;;;23.06;53.22
57412;BME280;43247;52.828;-8.980;2022-09-17T04:24:47;102629.82;;;22.71;53.83
57412;BME280;43247;52.828;-8.980;2022-09-17T04:27:17;102631.72;;;22.46;54.46
57412;BME280;43247;52.828;-8.980;2022-09-17T04:29:47;102633.06;;;22.73;53.85
57412;BME280;43247;52.828;-8.980;2022-09-17T04:32:17;102632.84;;;23.05;53.10
57412;BME280;43247;52.828;-8.980;2022-09-17T04:34:48;102632.56;;;23.04;53.11
57412;BME280;43247;52.828;-8.980;2022-09-17T04:37:18;102632.51;;;22.49;54.33
57412;BME280;43247;52.828;-8.980;2022-09-17T04:39:49;102635.57;;;22.62;54.02
57412;BME280;43247;52.828;-8.980;2022-09-17T04:42:19;102636.55;;;22.62;53.96
57412;BME280;43247;52.828;-8.980;2022-09-17T04:44:50;102638.25;;;22.73;53.58
57412;BME280;43247;52.828;-8.980;2022-09-17T04:47:20;102641.83;;;22.96;53.17
57412;BME280;43247;52.828;-8.980;2022-09-17T04:49:50;102642.80;;;22.75;53.45
57412;BME280;43247;52.828;-8.980;2022-09-17T04:52:21;102645.84;;;22.50;54.11
57412;BME280;43247;52.828;-8.980;2022-09-17T04:54:51;102649.15;;;22.90;53.27
57412;BME280;43247;52.828;-8.980;2022-09-17T04:57:22;102651.00;;;23.20;52.49
57412;BME280;43247;52.828;-8.980;2022-09-17T04:59:52;102650.76;;;22.52;54.00
57412;BME280;43247;52.828;-8.980;2022-09-17T05:02:22;102651.21;;;22.70;53.62
57412;BME280;43247;52.828;-8.980;2022-09-17T05:04:53;102650.51;;;22.75;53.42
57412;BME280;43247;52.828;-8.980;2022-09-17T05:07:23;102650.41;;;22.48;54.07
57412;BME280;43247;52.828;-8.980;2022-09-17T05:09:53;102649.72;;;22.85;53.50
57412;BME280;43247;52.828;-8.980;2022-09-17T05:12:24;102652.68;;;22.84;53.24
57412;BME280;43247;52.828;-8.980;2022-09-17T05:14:54;102655.45;;;22.42;54.31
57412;BME280;43247;52.828;-8.980;2022-09-17T05:17:25;102654.78;;;22.55;53.83
57412;BME280;43247;52.828;-8.980;2022-09-17T05:19:55;102654.92;;;22.53;53.78
57412;BME280;43247;52.828;-8.980;2022-09-17T05:22:25;102657.05;;;22.65;53.61
57412;BME280;43247;52.828;-8.980;2022-09-17T05:24:56;102656.78;;;22.54;53.76
57412;BME280;43247;52.828;-8.980;2022-09-17T05:27:26;102650.99;;;22.65;53.43
57412;BME280;43247;52.828;-8.980;2022-09-17T05:29:56;102653.08;;;22.68;53.40
57412;BME280;43247;52.828;-8.980;2022-09-17T05:32:27;102657.47;;;22.30;54.27
57412;BME280;43247;52.828;-8.980;2022-09-17T05:34:57;102654.23;;;22.71;53.47
57412;BME280;43247;52.828;-8.980;2022-09-17T05:37:28;102651.29;;;22.52;53.73
57412;BME280;43247;52.828;-8.980;2022-09-17T05:39:58;102647.86;;;22.73;53.36
57412;BME280;43247;52.828;-8.980;2022-09-17T05:42:28;102652.63;;;22.34;54.23
57412;BME280;43247;52.828;-8.980;2022-09-17T05:44:59;102654.22;;;22.27;54.35
57412;BME280;43247;52.828;-8.980;2022-09-17T05:47:29;102651.38;;;22.70;53.42
57412;BME280;43247;52.828;-8.980;2022-09-17T05:50:00;102646.81;;;22.38;54.07
57412;BME280;43247;52.828;-8.980;2022-09-17T05:52:30;102644.47;;;22.63;53.45
57412;BME280;43247;52.828;-8.980;2022-09-17T05:55:00;102643.52;;;22.72;53.28
57412;BME280;43247;52.828;-8.980;2022-09-17T05:57:31;102643.73;;;22.29;54.23
57412;BME280;43247;52.828;-8.980;2022-09-17T06:00:02;102643.97;;;22.84;52.95
57412;BME280;43247;52.828;-8.980;2022-09-17T06:02:32;102647.36;;;22.60;53.46
57412;BME280;43247;52.828;-8.980;2022-09-17T06:05:02;102652.33;;;23.07;52.40
57412;BME280;43247;52.828;-8.980;2022-09-17T06:07:34;102654.43;;;22.82;53.14
57412;BME280;43247;52.828;-8.980;2022-09-17T06:10:06;102654.24;;;22.67;53.58
57412;BME280;43247;52.828;-8.980;2022-09-17T06:12:35;102656.59;;;22.80;53.31
57412;BME280;43247;52.828;-8.980;2022-09-17T06:15:06;102658.62;;;23.06;52.64
57412;BME280;43247;52.828;-8.980;2022-09-17T06:17:36;102660.15;;;22.74;53.44
57412;BME280;43247;52.828;-8.980;2022-09-17T06:20:06;102664.10;;;23.27;52.08
57412;BME280;43247;52.828;-8.980;2022-09-17T06:22:36;102667.34;;;22.53;53.61
57412;BME280;43247;52.828;-8.980;2022-09-17T06:25:07;102666.96;;;22.71;53.31
57412;BME280;43247;52.828;-8.980;2022-09-17T06:27:37;102668.08;;;22.22;54.33
57412;BME280;43247;52.828;-8.980;2022-09-17T06:30:10;102664.84;;;22.64;53.23
57412;BME280;43247;52.828;-8.980;2022-09-17T06:32:38;102663.49;;;22.81;53.10
57412;BME280;43247;52.828;-8.980;2022-09-17T06:35:09;102663.99;;;22.35;53.85
57412;BME280;43247;52.828;-8.980;2022-09-17T06:37:38;102663.86;;;22.16;54.47
57412;BME280;43247;52.828;-8.980;2022-09-17T06:40:09;102666.12;;;22.64;53.26
57412;BME280;43247;52.828;-8.980;2022-09-17T06:42:39;102671.03;;;22.41;53.85
57412;BME280;43247;52.828;-8.980;2022-09-17T06:45:10;102673.92;;;22.90;52.77
57412;BME280;43247;52.828;-8.980;2022-09-17T06:47:40;102672.91;;;23.08;52.41
57412;BME280;43247;52.828;-8.980;2022-09-17T06:50:11;102670.31;;;22.61;53.30
57412;BME280;43247;52.828;-8.980;2022-09-17T06:52:47;102671.44;;;22.17;54.20
57412;BME280;43247;52.828;-8.980;2022-09-17T06:55:11;102671.28;;;22.16;54.35
57412;BME280;43247;52.828;-8.980;2022-09-17T06:57:42;102677.44;;;22.43;53.59
57412;BME280;43247;52.828;-8.980;2022-09-17T07:00:14;102677.93;;;21.83;54.95
57412;BME280;43247;52.828;-8.980;2022-09-17T07:02:42;102674.39;;;21.97;55.02
57412;BME280;43247;52.828;-8.980;2022-09-17T07:05:13;102674.66;;;22.25;54.29
57412;BME280;43247;52.828;-8.980;2022-09-17T07:07:43;102680.63;;;22.23;54.24
57412;BME280;43247;52.828;-8.980;2022-09-17T07:10:13;102683.20;;;22.88;52.75
57412;BME280;43247;52.828;-8.980;2022-09-17T07:12:44;102684.09;;;23.18;52.10
57412;BME280;43247;52.828;-8.980;2022-09-17T07:15:15;102685.80;;;23.69;50.96
57412;BME280;43247;52.828;-8.980;2022-09-17T07:17:44;102685.14;;;23.45;51.39
57412;BME280;43247;52.828;-8.980;2022-09-17T07:20:15;102689.58;;;23.32;51.49
57412;BME280;43247;52.828;-8.980;2022-09-17T07:22:45;102688.75;;;23.71;50.68
57412;BME280;43247;52.828;-8.980;2022-09-17T07:25:16;102689.54;;;23.73;50.87
57412;BME280;43247;52.828;-8.980;2022-09-17T07:27:46;102693.23;;;23.40;51.26
57412;BME280;43247;52.828;-8.980;2022-09-17T07:30:16;102696.55;;;23.30;51.57
57412;BME280;43247;52.828;-8.980;2022-09-17T07:32:47;102697.92;;;23.85;50.63
57412;BME280;43247;52.828;-8.980;2022-09-17T07:35:17;102695.99;;;23.74;50.70
57412;BME280;43247;52.828;-8.980;2022-09-17T07:37:47;102700.63;;;24.75;48.57
57412;BME280;43247;52.828;-8.980;2022-09-17T07:40:18;102696.97;;;23.61;50.70
57412;BME280;43247;52.828;-8.980;2022-09-17T07:42:48;102694.56;;;24.38;48.94
57412;BME280;43247;52.828;-8.980;2022-09-17T07:45:18;102697.48;;;24.46;48.89
57412;BME280;43247;52.828;-8.980;2022-09-17T07:47:49;102695.70;;;24.34;49.11
57412;BME280;43247;52.828;-8.980;2022-09-17T07:50:19;102699.12;;;24.72;48.60
57412;BME280;43247;52.828;-8.980;2022-09-17T07:52:50;102694.29;;;24.61;48.91
57412;BME280;43247;52.828;-8.980;2022-09-17T07:55:20;102693.28;;;24.74;48.67
57412;BME280;43247;52.828;-8.980;2022-09-17T07:57:51;102695.59;;;24.77;48.67
57412;BME280;43247;52.828;-8.980;2022-09-17T08:00:21;102688.34;;;24.58;49.01
57412;BME280;43247;52.828;-8.980;2022-09-17T08:02:53;102689.01;;;24.72;48.85
57412;BME280;43247;52.828;-8.980;2022-09-17T08:05:22;102691.31;;;24.78;48.68
57412;BME280;43247;52.828;-8.980;2022-09-17T08:07:53;102696.11;;;24.83;48.67
57412;BME280;43247;52.828;-8.980;2022-09-17T08:10:22;102698.59;;;24.84;48.71
57412;BME280;43247;52.828;-8.980;2022-09-17T08:12:55;102700.24;;;24.97;48.54
57412;BME280;43247;52.828;-8.980;2022-09-17T08:15:23;102701.94;;;24.87;48.73
57412;BME280;43247;52.828;-8.980;2022-09-17T08:17:53;102703.29;;;25.00;48.60
57412;BME280;43247;52.828;-8.980;2022-09-17T08:20:24;102705.29;;;24.39;49.87
57412;BME280;43247;52.828;-8.980;2022-09-17T08:22:58;102712.03;;;25.10;48.52
57412;BME280;43247;52.828;-8.980;2022-09-17T08:25:25;102714.41;;;25.09;48.60
57412;BME280;43247;52.828;-8.980;2022-09-17T08:27:55;102714.48;;;25.29;48.18
57412;BME280;43247;52.828;-8.980;2022-09-17T08:30:25;102713.84;;;24.93;48.96
57412;BME280;43247;52.828;-8.980;2022-09-17T08:32:55;102714.73;;;25.67;47.40
57412;BME280;43247;52.828;-8.980;2022-09-17T08:35:26;102711.78;;;24.80;49.14
57412;BME280;43247;52.828;-8.980;2022-09-17T08:37:56;102709.33;;;24.48;49.47
57412;BME280;43247;52.828;-8.980;2022-09-17T08:40:26;102710.03;;;24.37;49.54
57412;BME280;43247;52.828;-8.980;2022-09-17T08:42:59;102716.08;;;24.79;48.83
57412;BME280;43247;52.828;-8.980;2022-09-17T08:45:28;102716.78;;;25.06;48.26
57412;BME280;43247;52.828;-8.980;2022-09-17T08:48:01;102716.11;;;24.36;49.56
57412;BME280;43247;52.828;-8.980;2022-09-17T08:50:30;102720.31;;;24.53;49.48
57412;BME280;43247;52.828;-8.980;2022-09-17T08:53:13;102724.03;;;24.23;50.34
57412;BME280;43247;52.828;-8.980;2022-09-17T08:55:35;102726.09;;;24.93;48.91
57412;BME280;43247;52.828;-8.980;2022-09-17T08:58:12;102725.47;;;24.94;48.95
57412;BME280;43247;52.828;-8.980;2022-09-17T09:00:32;102726.42;;;24.87;49.24
57412;BME280;43247;52.828;-8.980;2022-09-17T09:03:12;102723.26;;;24.94;49.05
57412;BME280;43247;52.828;-8.980;2022-09-17T09:05:36;102721.79;;;24.98;49.06
57412;BME280;43247;52.828;-8.980;2022-09-17T09:08:04;102716.69;;;24.99;49.10
57412;BME280;43247;52.828;-8.980;2022-09-17T09:10:38;102720.33;;;24.83;49.38
57412;BME280;43247;52.828;-8.980;2022-09-17T09:15:36;102716.15;;;23.98;51.26
57412;BME280;43247;52.828;-8.980;2022-09-17T09:18:10;102710.16;;;24.32;50.44
57412;BME280;43247;52.828;-8.980;2022-09-17T09:20:41;102715.07;;;24.20;50.78
57412;BME280;43247;52.828;-8.980;2022-09-17T09:23:06;102711.88;;;24.52;50.07
57412;BME280;43247;52.828;-8.980;2022-09-17T09:25:41;102719.60;;;24.88;49.33
57412;BME280;43247;52.828;-8.980;2022-09-17T09:28:14;102719.34;;;25.08;48.90
57412;BME280;43247;52.828;-8.980;2022-09-17T09:30:44;102716.86;;;24.54;50.26
57412;BME280;43247;52.828;-8.980;2022-09-17T09:33:11;102718.99;;;24.06;51.51
57412;BME280;43247;52.828;-8.980;2022-09-17T09:35:36;102717.07;;;24.34;51.06
57412;BME280;43247;52.828;-8.980;2022-09-17T09:38:13;102715.24;;;24.31;51.24
57412;BME280;43247;52.828;-8.980;2022-09-17T09:40:39;102715.26;;;24.36;51.09
57412;BME280;43247;52.828;-8.980;2022-09-17T09:43:14;102721.19;;;25.02;49.68
57412;BME280;43247;52.828;-8.980;2022-09-17T09:45:46;102720.67;;;24.32;51.40
57412;BME280;43247;52.828;-8.980;2022-09-17T09:48:14;102720.61;;;24.48;50.96
57412;BME280;43247;52.828;-8.980;2022-09-17T09:50:44;102719.69;;;23.93;52.16
57412;BME280;43247;52.828;-8.980;2022-09-17T09:53:13;102716.93;;;24.16;51.77
57412;BME280;43247;52.828;-8.980;2022-09-17T09:55:52;102717.67;;;23.38;53.62
57412;BME280;43247;52.828;-8.980;2022-09-17T09:58:18;102718.78;;;24.12;51.79
57412;BME280;43247;52.828;-8.980;2022-09-17T10:00:40;102714.23;;;23.87;52.31
57412;BME280;43247;52.828;-8.980;2022-09-17T10:03:15;102709.92;;;23.66;52.83
57412;BME280;43247;52.828;-8.980;2022-09-17T10:05:40;102711.11;;;24.97;49.90
57412;BME280;43247;52.828;-8.980;2022-09-17T10:08:11;102716.44;;;23.92;52.01
57412;BME280;43247;52.828;-8.980;2022-09-17T10:13:11;102707.44;;;24.28;51.30
57412;BME280;43247;52.828;-8.980;2022-09-17T10:15:41;102709.21;;;23.93;51.89
57412;BME280;43247;52.828;-8.980;2022-09-17T10:18:16;102705.59;;;23.39;53.28
57412;BME280;43247;52.828;-8.980;2022-09-17T10:20:48;102703.15;;;23.13;53.61
57412;BME280;43247;52.828;-8.980;2022-09-17T10:23:12;102699.71;;;23.32;53.25
57412;BME280;43247;52.828;-8.980;2022-09-17T10:25:43;102701.69;;;23.76;52.37
57412;BME280;43247;52.828;-8.980;2022-09-17T10:33:18;102696.58;;;23.07;53.73
57412;BME280;43247;52.828;-8.980;2022-09-17T10:40:45;102691.42;;;23.08;53.34
57412;BME280;43247;52.828;-8.980;2022-09-17T10:43:21;102687.87;;;22.78;53.88
57412;BME280;43247;52.828;-8.980;2022-09-17T10:45:54;102688.55;;;22.81;53.91
57412;BME280;43247;52.828;-8.980;2022-09-17T10:48:18;102687.23;;;22.60;54.57
57412;BME280;43247;52.828;-8.980;2022-09-17T10:50:47;102682.45;;;22.72;54.40
57412;BME280;43247;52.828;-8.980;2022-09-17T10:53:17;102684.07;;;22.69;54.32
57412;BME280;43247;52.828;-8.980;2022-09-17T10:55:51;102684.64;;;22.79;54.50
57412;BME280;43247;52.828;-8.980;2022-09-17T10:58:26;102680.54;;;22.84;54.02
57412;BME280;43247;52.828;-8.980;2022-09-17T11:00:58;102680.52;;;22.91;53.58
57412;BME280;43247;52.828;-8.980;2022-09-17T11:05:58;102671.89;;;22.70;54.01
57412;BME280;43247;52.828;-8.980;2022-09-17T11:08:21;102672.99;;;23.04;53.40
57412;BME280;43247;52.828;-8.980;2022-09-17T11:11:00;102674.09;;;23.00;53.46
57412;BME280;43247;52.828;-8.980;2022-09-17T11:13:26;102668.24;;;22.74;53.81
57412;BME280;43247;52.828;-8.980;2022-09-17T11:16:03;102666.71;;;22.81;53.85
57412;BME280;43247;52.828;-8.980;2022-09-17T11:18:31;102668.39;;;22.66;54.30
57412;BME280;43247;52.828;-8.980;2022-09-17T11:21:04;102667.83;;;22.62;54.20
57412;BME280;43247;52.828;-8.980;2022-09-17T11:23:32;102666.40;;;23.03;53.24
57412;BME280;43247;52.828;-8.980;2022-09-17T11:25:53;102664.88;;;22.91;53.45
57412;BME280;43247;52.828;-8.980;2022-09-17T11:28:34;102662.67;;;23.17;53.09
57412;BME280;43247;52.828;-8.980;2022-09-17T11:31:01;102660.92;;;22.94;53.51
57412;BME280;43247;52.828;-8.980;2022-09-17T11:33:37;102658.42;;;22.68;54.05
57412;BME280;43247;52.828;-8.980;2022-09-17T11:35:56;102657.59;;;22.77;53.89
57412;BME280;43247;52.828;-8.980;2022-09-17T11:38:28;102658.72;;;22.70;53.90
57412;BME280;43247;52.828;-8.980;2022-09-17T11:41:00;102654.07;;;22.80;53.81
57412;BME280;43247;52.828;-8.980;2022-09-17T11:43:26;102653.58;;;23.00;53.42
57412;BME280;43247;52.828;-8.980;2022-09-17T11:45:59;102647.27;;;23.15;52.90
57412;BME280;43247;52.828;-8.980;2022-09-17T11:48:31;102642.19;;;22.74;53.92
57412;BME280;43247;52.828;-8.980;2022-09-17T11:50:59;102642.96;;;22.91;53.58
57412;BME280;43247;52.828;-8.980;2022-09-17T11:53:30;102639.28;;;23.13;53.22
57412;BME280;43247;52.828;-8.980;2022-09-17T11:55:58;102638.32;;;23.21;52.89
57412;BME280;43247;52.828;-8.980;2022-09-17T11:58:33;102636.58;;;22.69;53.99
57412;BME280;43247;52.828;-8.980;2022-09-17T12:01:01;102629.72;;;23.02;53.27
57412;BME280;43247;52.828;-8.980;2022-09-17T12:03:29;102625.81;;;23.31;52.54
57412;BME280;43247;52.828;-8.980;2022-09-17T12:06:01;102622.66;;;22.93;53.39
57412;BME280;43247;52.828;-8.980;2022-09-17T12:08:36;102619.39;;;23.15;52.71
57412;BME280;43247;52.828;-8.980;2022-09-17T12:11:04;102618.15;;;22.66;53.58
57412;BME280;43247;52.828;-8.980;2022-09-17T12:13:34;102617.53;;;22.77;53.25
57412;BME280;43247;52.828;-8.980;2022-09-17T12:16:09;102617.08;;;23.15;52.29
57412;BME280;43247;52.828;-8.980;2022-09-17T12:18:41;102617.98;;;22.64;53.22
57412;BME280;43247;52.828;-8.980;2022-09-17T12:21:02;102620.23;;;22.64;52.85
57412;BME280;43247;52.828;-8.980;2022-09-17T12:23:35;102619.98;;;22.32;53.22
57412;BME280;43247;52.828;-8.980;2022-09-17T12:26:07;102620.36;;;22.43;52.73
57412;BME280;43247;52.828;-8.980;2022-09-17T12:28:34;102615.67;;;22.60;52.08
57412;BME280;43247;52.828;-8.980;2022-09-17T12:31:06;102616.28;;;22.99;51.40
57412;BME280;43247;52.828;-8.980;2022-09-17T12:33:35;102612.72;;;23.00;50.83
57412;BME280;43247;52.828;-8.980;2022-09-17T12:36:15;102610.59;;;23.03;50.85
57412;BME280;43247;52.828;-8.980;2022-09-17T12:38:45;102606.18;;;22.61;51.61
57412;BME280;43247;52.828;-8.980;2022-09-17T12:41:08;102605.35;;;23.04;50.73
57412;BME280;43247;52.828;-8.980;2022-09-17T12:43:45;102603.35;;;22.92;51.23
57412;BME280;43247;52.828;-8.980;2022-09-17T12:46:15;102601.58;;;23.75;49.42
57412;BME280;43247;52.828;-8.980;2022-09-17T12:51:15;102596.90;;;23.30;50.32
57412;BME280;43247;52.828;-8.980;2022-09-17T12:53:36;102594.85;;;23.56;49.80
57412;BME280;43247;52.828;-8.980;2022-09-17T12:56:14;102593.30;;;23.48;50.18
57412;BME280;43247;52.828;-8.980;2022-09-17T12:58:45;102591.51;;;23.49;50.10
57412;BME280;43247;52.828;-8.980;2022-09-17T13:01:10;102594.55;;;23.46;49.97
57412;BME280;43247;52.828;-8.980;2022-09-17T13:03:41;102592.96;;;22.94;51.21
57412;BME280;43247;52.828;-8.980;2022-09-17T13:06:16;102588.17;;;22.94;51.34
57412;BME280;43247;52.828;-8.980;2022-09-17T13:13:45;102580.71;;;23.19;51.01
57412;BME280;43247;52.828;-8.980;2022-09-17T13:16:12;102574.74;;;23.28;50.64
57412;BME280;43247;52.828;-8.980;2022-09-17T13:18:45;102574.82;;;23.29;50.81
57412;BME280;43247;52.828;-8.980;2022-09-17T13:21:11;102572.28;;;22.91;51.47
57412;BME280;43247;52.828;-8.980;2022-09-17T13:23:42;102568.90;;;22.87;51.97